Time;durP1;ratioP1;P1;durP2;ratioP2;P2;SDS_P1;SDS_P2;PMS_P1;PMS_P2;Temp;Humidity;BMP_temperature;BMP_pressure;BME280_temperature;BME280_humidity;BME280_pressure;Samples;Min_cycle;Max_cycle;Signal;HPM_P1;HPM_P2
2022/07/20 00:02:14;;;;;;;8.77;4.65;;;25.20;55.80;;;;;;6129489;28;80579;-62
2022/07/20 00:05:15;;;;;;;7.72;4.75;;;25.30;55.50;;;;;;6123020;28;80137;-62
2022/07/20 00:11:19;;;;;;;10.98;5.75;;;25.30;55.50;;;;;;6107175;28;81663;-63
2022/07/20 00:11:35;;;;;;;15.43;5.47;;;25.30;55.90;;;;;;6111020;28;80270;-63
2022/07/20 00:14:36;;;;;;;9.70;4.78;;;25.20;56.10;;;;;;6111028;28;80547;-63
2022/07/20 00:17:36;;;;;;;8.70;4.18;;;25.20;56.10;;;;;;6122262;28;80048;-63
2022/07/20 00:20:37;;;;;;;10.13;5.30;;;25.20;56.30;;;;;;6110627;28;80607;-63
2022/07/20 00:23:37;;;;;;;8.00;4.43;;;25.10;56.20;;;;;;6111929;28;80044;-62
2022/07/20 00:26:38;;;;;;;13.45;4.78;;;25.10;56.30;;;;;;6111572;28;80394;-63
2022/07/20 00:29:38;;;;;;;9.05;5.10;;;25.10;56.40;;;;;;6118219;28;82180;-62
2022/07/20 00:32:39;;;;;;;8.60;4.88;;;25.10;56.50;;;;;;6108675;28;80975;-62
2022/07/20 00:35:39;;;;;;;10.10;4.90;;;25.10;56.20;;;;;;6102619;28;81116;-63
2022/07/20 00:38:40;;;;;;;11.52;4.55;;;25.10;56.20;;;;;;6098668;28;80533;-63
2022/07/20 00:41:40;;;;;;;11.63;4.88;;;25.10;56.10;;;;;;6111004;28;80555;-62
2022/07/20 00:44:41;;;;;;;7.40;4.78;;;25.10;56.00;;;;;;6117916;28;80538;-63
2022/07/20 00:47:41;;;;;;;7.40;4.82;;;25.10;56.00;;;;;;6104399;28;80424;-63
2022/07/20 00:50:42;;;;;;;8.00;4.30;;;25.10;56.10;;;;;;6122177;28;81592;-62
2022/07/20 00:53:42;;;;;;;10.73;4.63;;;25.10;56.10;;;;;;6110381;28;80859;-63
2022/07/20 00:56:43;;;;;;;7.65;4.38;;;25.10;56.10;;;;;;6116930;28;80225;-63
2022/07/20 00:59:43;;;;;;;8.32;4.63;;;25.10;55.90;;;;;;6108490;28;87836;-66
2022/07/20 01:02:44;;;;;;;7.20;4.50;;;25.10;55.80;;;;;;6119029;28;81098;-64
2022/07/20 01:05:44;;;;;;;7.57;4.07;;;25.10;55.60;;;;;;6114768;28;80866;-64
2022/07/20 01:08:45;;;;;;;7.55;4.35;;;25.10;55.60;;;;;;6114286;28;81354;-63
2022/07/20 01:11:45;;;;;;;6.95;3.95;;;25.00;55.50;;;;;;6103273;28;80210;-63
2022/07/20 01:14:46;;;;;;;6.97;3.95;;;25.00;55.50;;;;;;6098137;28;80289;-63
2022/07/20 01:17:46;;;;;;;9.00;5.05;;;25.00;55.30;;;;;;6103381;28;80346;-63
2022/07/20 01:20:46;;;;;;;7.95;4.53;;;25.00;55.20;;;;;;6109958;28;80378;-63
2022/07/20 01:23:47;;;;;;;9.55;4.05;;;25.00;55.10;;;;;;6107174;28;80600;-63
2022/07/20 01:26:47;;;;;;;8.63;4.72;;;25.10;55.20;;;;;;6109657;28;81077;-63
2022/07/20 01:29:48;;;;;;;6.88;4.07;;;25.10;55.20;;;;;;6109361;28;80641;-63
2022/07/20 01:32:48;;;;;;;8.07;4.57;;;25.10;55.40;;;;;;6109656;28;81385;-63
2022/07/20 01:35:49;;;;;;;12.13;4.47;;;25.10;55.60;;;;;;6100040;28;80687;-63
2022/07/20 01:38:49;;;;;;;8.05;4.63;;;25.10;55.70;;;;;;6108980;28;81944;-63
2022/07/20 01:41:52;;;;;;;4.90;3.70;;;25.10;55.50;;;;;;6108574;28;80776;-64
2022/07/20 01:44:53;;;;;;;8.00;4.20;;;25.10;55.20;;;;;;6109548;28;80479;-63
2022/07/20 01:47:53;;;;;;;7.97;5.00;;;25.10;55.20;;;;;;6122659;28;80783;-63
2022/07/20 01:50:54;;;;;;;9.15;4.28;;;25.10;55.20;;;;;;6109793;28;80297;-63
2022/07/20 01:53:54;;;;;;;10.68;4.28;;;25.10;55.30;;;;;;6103839;28;80826;-63
2022/07/20 01:56:55;;;;;;;11.10;5.10;;;25.10;55.30;;;;;;6123415;28;80335;-63
2022/07/20 01:59:55;;;;;;;10.52;4.40;;;25.10;55.20;;;;;;6110028;28;80594;-63
2022/07/20 02:02:56;;;;;;;9.65;4.68;;;25.10;55.00;;;;;;6110017;28;80523;-63
2022/07/20 02:05:56;;;;;;;13.13;5.05;;;25.10;54.90;;;;;;6114225;28;80270;-62
2022/07/20 02:08:57;;;;;;;7.28;4.25;;;25.00;55.10;;;;;;6115541;28;80525;-63
2022/07/20 02:11:57;;;;;;;6.47;4.03;;;25.00;55.20;;;;;;6123738;28;80449;-63
2022/07/20 02:14:58;;;;;;;8.73;4.47;;;25.00;55.40;;;;;;6113448;28;81363;-62
2022/07/20 02:17:58;;;;;;;7.82;4.57;;;25.00;55.80;;;;;;6116876;28;80915;-62
2022/07/20 02:20:59;;;;;;;9.23;4.05;;;25.00;56.10;;;;;;6113641;28;80996;-62
2022/07/20 02:24:00;;;;;;;6.75;4.07;;;24.90;56.00;;;;;;6113651;28;80752;-62
2022/07/20 02:27:00;;;;;;;5.85;4.05;;;24.90;55.90;;;;;;6111512;28;81830;-62
2022/07/20 02:30:00;;;;;;;6.00;3.88;;;24.90;55.90;;;;;;6114807;28;81320;-62
2022/07/20 02:33:01;;;;;;;7.45;4.63;;;24.90;55.70;;;;;;6121173;28;80383;-62
2022/07/20 02:36:01;;;;;;;4.97;4.00;;;24.90;55.60;;;;;;6115668;28;80068;-62
2022/07/20 02:39:03;;;;;;;8.00;4.28;;;24.90;55.60;;;;;;6115164;28;80869;-63
2022/07/20 02:42:04;;;;;;;5.55;3.88;;;24.90;55.50;;;;;;6117671;28;81506;-62
2022/07/20 02:45:04;;;;;;;6.25;4.00;;;24.90;55.50;;;;;;6110954;28;80830;-62
2022/07/20 02:48:05;;;;;;;9.05;4.60;;;24.90;55.40;;;;;;6100054;28;80428;-63
2022/07/20 02:51:05;;;;;;;8.45;4.47;;;24.90;55.40;;;;;;6105317;28;80941;-63
2022/07/20 02:54:06;;;;;;;7.90;4.90;;;24.80;55.30;;;;;;6112447;28;80483;-63
2022/07/20 02:57:06;;;;;;;5.78;4.20;;;24.70;55.40;;;;;;6112201;28;81628;-63
2022/07/20 03:00:07;;;;;;;8.25;4.00;;;24.60;55.70;;;;;;6108394;28;81340;-62
2022/07/20 03:03:07;;;;;;;9.77;4.40;;;24.50;56.00;;;;;;6088930;28;80538;-62
2022/07/20 03:06:08;;;;;;;6.40;3.78;;;24.40;56.40;;;;;;6114925;28;80841;-62
2022/07/20 03:09:08;;;;;;;7.40;4.63;;;24.40;56.40;;;;;;6111972;28;80406;-62
2022/07/20 03:12:09;;;;;;;11.07;4.53;;;24.40;56.10;;;;;;6110679;28;81157;-62
2022/07/20 03:15:09;;;;;;;5.60;3.72;;;24.40;55.90;;;;;;6105557;28;80501;-63
2022/07/20 03:18:10;;;;;;;8.30;4.22;;;24.40;55.80;;;;;;6112542;28;81583;-62
2022/07/20 03:21:10;;;;;;;9.18;4.03;;;24.30;55.70;;;;;;6102732;28;80588;-68
2022/07/20 03:24:11;;;;;;;7.18;4.15;;;24.30;55.70;;;;;;6108050;28;80413;-64
2022/07/20 03:27:11;;;;;;;7.88;3.83;;;24.40;55.60;;;;;;6106783;28;80757;-66
2022/07/20 03:30:11;;;;;;;5.72;3.88;;;24.50;55.60;;;;;;6100613;28;80373;-67
2022/07/20 03:33:12;;;;;;;5.82;3.65;;;24.60;55.50;;;;;;6107828;28;81744;-67
2022/07/20 03:36:12;;;;;;;6.47;3.38;;;24.60;55.20;;;;;;6108480;28;80562;-68
2022/07/20 03:39:13;;;;;;;7.47;4.22;;;24.60;55.30;;;;;;6103098;28;80513;-70
2022/07/20 03:42:13;;;;;;;11.27;3.25;;;24.60;55.40;;;;;;6108775;28;81933;-65
2022/07/20 03:45:14;;;;;;;5.85;3.60;;;24.70;55.60;;;;;;6107713;28;80443;-64
2022/07/20 03:48:14;;;;;;;8.68;3.75;;;24.70;55.60;;;;;;6094445;28;81529;-64
2022/07/20 03:51:15;;;;;;;8.63;3.95;;;24.70;55.80;;;;;;6098237;28;80794;-70
2022/07/20 03:54:15;;;;;;;12.30;4.47;;;24.70;56.10;;;;;;6100234;28;80710;-69
2022/07/20 03:57:17;;;;;;;12.32;4.03;;;24.80;56.00;;;;;;6102533;28;80513;-64
2022/07/20 04:00:17;;;;;;;8.63;4.10;;;24.80;56.00;;;;;;6110926;28;80482;-62
2022/07/20 04:03:18;;;;;;;9.98;3.85;;;24.80;55.90;;;;;;6097941;28;81001;-67
2022/07/20 04:06:18;;;;;;;7.18;4.03;;;24.80;55.80;;;;;;6110713;28;80333;-63
2022/07/20 04:09:43;;;;;;;7.22;3.90;;;24.90;56.00;;;;;;6121527;28;80613;-62
2022/07/20 04:12:39;;;;;;;9.30;3.90;;;24.90;56.00;;;;;;6106505;28;81327;-63
2022/07/20 04:15:40;;;;;;;6.57;3.58;;;24.90;56.20;;;;;;6111001;28;80626;-63
2022/07/20 04:18:40;;;;;;;7.57;3.80;;;24.90;56.70;;;;;;6106190;28;80375;-63
2022/07/20 04:21:41;;;;;;;7.80;3.58;;;24.90;56.70;;;;;;6104980;28;81059;-62
2022/07/20 04:24:41;;;;;;;7.72;3.83;;;24.90;56.20;;;;;;6112333;28;80294;-63
2022/07/20 04:27:42;;;;;;;6.32;3.97;;;24.70;55.90;;;;;;6111400;28;80952;-63
2022/07/20 04:30:42;;;;;;;6.95;3.92;;;24.70;56.20;;;;;;6106455;28;80308;-63
2022/07/20 04:33:43;;;;;;;7.63;3.65;;;24.60;56.10;;;;;;6111112;28;80724;-63
2022/07/20 04:36:43;;;;;;;8.52;3.55;;;24.60;56.30;;;;;;6110768;28;80004;-63
2022/07/20 04:39:43;;;;;;;10.45;4.13;;;24.30;56.80;;;;;;6110839;28;81437;-63
2022/07/20 04:42:44;;;;;;;9.38;4.18;;;24.30;57.10;;;;;;6110799;28;80327;-63
2022/07/20 04:45:44;;;;;;;8.70;4.72;;;24.40;57.10;;;;;;6112189;28;80545;-62
2022/07/20 04:48:45;;;;;;;7.65;4.38;;;24.50;56.80;;;;;;6117748;28;80414;-64
2022/07/20 04:51:45;;;;;;;10.48;4.53;;;24.60;56.60;;;;;;6110426;28;80529;-63
2022/07/20 04:54:46;;;;;;;7.43;3.67;;;24.70;56.60;;;;;;6107417;28;80594;-73
2022/07/20 04:57:46;;;;;;;11.32;3.95;;;24.70;56.70;;;;;;6107795;28;80878;-63
2022/07/20 05:00:47;;;;;;;7.38;4.00;;;24.80;56.60;;;;;;6105707;28;80445;-71
2022/07/20 05:03:47;;;;;;;8.68;4.53;;;24.80;56.60;;;;;;6100869;28;80452;-64
2022/07/20 05:06:48;;;;;;;11.07;4.13;;;24.90;56.40;;;;;;6106167;28;80244;-63
2022/07/20 05:09:48;;;;;;;11.23;3.95;;;25.00;56.70;;;;;;6110011;28;80608;-63
2022/07/20 05:12:49;;;;;;;14.35;4.90;;;25.00;56.60;;;;;;6109706;28;80536;-63
2022/07/20 05:15:49;;;;;;;8.00;4.38;;;25.10;56.80;;;;;;6102316;28;81729;-63
2022/07/20 05:18:50;;;;;;;7.95;4.07;;;25.00;56.80;;;;;;6107215;28;80526;-63
2022/07/20 05:21:50;;;;;;;9.05;4.03;;;25.10;56.90;;;;;;6122521;28;80464;-63
2022/07/20 05:24:50;;;;;;;8.82;4.22;;;25.10;56.70;;;;;;6108161;28;80459;-63
2022/07/20 05:27:51;;;;;;;8.50;3.97;;;25.10;56.60;;;;;;6109607;28;81727;-63
2022/07/20 05:30:51;;;;;;;8.68;4.07;;;25.10;56.50;;;;;;6109089;28;81870;-63
2022/07/20 05:33:52;;;;;;;8.88;4.28;;;25.10;56.70;;;;;;6109097;28;80610;-64
2022/07/20 05:36:52;;;;;;;8.88;4.10;;;25.10;57.20;;;;;;6107903;28;81621;-64
2022/07/20 05:39:53;;;;;;;7.57;3.92;;;25.10;56.70;;;;;;6103624;28;81531;-66
2022/07/20 05:42:53;;;;;;;8.00;4.22;;;25.10;56.60;;;;;;6110641;28;80854;-65
2022/07/20 05:45:54;;;;;;;7.20;4.15;;;25.10;56.50;;;;;;6111946;28;82747;-64
2022/07/20 05:48:54;;;;;;;8.02;4.15;;;25.10;56.40;;;;;;6113668;28;80424;-65
2022/07/20 05:51:55;;;;;;;12.55;4.00;;;25.10;56.50;;;;;;6109183;28;80882;-64
2022/07/20 05:54:55;;;;;;;14.30;4.45;;;25.10;56.30;;;;;;6109709;28;80654;-64
2022/07/20 05:57:56;;;;;;;9.07;4.55;;;25.20;56.60;;;;;;6103649;28;80112;-64
2022/07/20 06:00:56;;;;;;;6.15;3.55;;;25.20;56.60;;;;;;6103025;28;80943;-63
2022/07/20 06:03:57;;;;;;;8.80;4.45;;;25.20;56.60;;;;;;6100441;28;80890;-63
2022/07/20 06:06:58;;;;;;;6.75;3.67;;;25.20;56.60;;;;;;6098000;28;80845;-62
2022/07/20 06:09:58;;;;;;;10.95;4.00;;;25.30;56.70;;;;;;6100417;28;81466;-63
2022/07/20 06:12:58;;;;;;;9.25;4.03;;;25.30;56.80;;;;;;6106291;28;80419;-62
2022/07/20 06:15:59;;;;;;;7.65;4.50;;;25.30;56.80;;;;;;6103726;28;81001;-63
2022/07/20 06:18:59;;;;;;;7.20;3.72;;;25.30;56.90;;;;;;6104980;28;80551;-62
2022/07/20 06:22:00;;;;;;;7.25;3.92;;;25.40;57.10;;;;;;6110255;28;80261;-63
2022/07/20 06:25:00;;;;;;;6.55;3.65;;;25.40;57.80;;;;;;6098733;28;80653;-63
2022/07/20 06:28:01;;;;;;;7.40;4.43;;;25.40;57.30;;;;;;6095379;28;80303;-63
2022/07/20 06:31:03;;;;;;;7.88;4.32;;;25.40;57.30;;;;;;6094043;28;80248;-64
2022/07/20 06:34:05;;;;;;;7.30;3.72;;;25.50;57.50;;;;;;6109531;28;80329;-65
2022/07/20 06:37:06;;;;;;;8.68;4.35;;;25.50;57.60;;;;;;6107971;28;80662;-64
2022/07/20 06:40:06;;;;;;;7.60;3.95;;;25.50;57.70;;;;;;6099336;28;80485;-64
2022/07/20 06:43:07;;;;;;;8.15;4.18;;;25.50;57.90;;;;;;6106927;28;80604;-64
2022/07/20 06:46:07;;;;;;;6.45;4.22;;;25.50;57.90;;;;;;6111586;28;80840;-64
2022/07/20 06:49:09;;;;;;;7.80;4.78;;;25.50;58.10;;;;;;6102578;28;80400;-63
2022/07/20 06:52:09;;;;;;;6.60;3.78;;;25.50;58.20;;;;;;6100718;28;81343;-64
2022/07/20 06:55:10;;;;;;;9.50;3.92;;;25.50;58.20;;;;;;6097773;28;81363;-63
2022/07/20 06:58:10;;;;;;;10.38;4.10;;;25.60;58.20;;;;;;6109202;28;80443;-63
2022/07/20 07:01:11;;;;;;;8.43;4.15;;;25.60;58.10;;;;;;6104151;28;80668;-63
2022/07/20 07:04:11;;;;;;;7.15;3.60;;;25.60;57.80;;;;;;6104633;28;80577;-63
2022/07/20 07:07:12;;;;;;;10.00;3.92;;;25.60;57.90;;;;;;6109760;28;80976;-64
2022/07/20 07:10:12;;;;;;;6.40;3.83;;;25.60;57.80;;;;;;6104914;28;80611;-63
2022/07/20 07:13:13;;;;;;;6.30;3.72;;;25.60;57.70;;;;;;6108296;28;82097;-63
2022/07/20 07:16:13;;;;;;;8.38;4.40;;;25.60;57.50;;;;;;6104528;28;80889;-66
2022/07/20 07:19:14;;;;;;;8.70;3.50;;;25.60;57.50;;;;;;6106100;28;80668;-66
2022/07/20 07:22:14;;;;;;;7.28;4.07;;;25.70;57.30;;;;;;6114212;28;80514;-64
2022/07/20 07:25:15;;;;;;;7.03;3.58;;;25.70;56.80;;;;;;6119685;28;80455;-64
2022/07/20 07:28:15;;;;;;;5.70;3.80;;;25.70;56.30;;;;;;6114672;28;80308;-67
2022/07/20 07:31:17;;;;;;;6.63;3.50;;;25.70;56.30;;;;;;6112118;28;80280;-63
2022/07/20 07:34:17;;;;;;;6.20;3.67;;;25.70;56.00;;;;;;6100061;28;80398;-63
2022/07/20 07:37:18;;;;;;;7.72;3.67;;;25.70;55.60;;;;;;6108715;28;81469;-63
2022/07/20 07:40:18;;;;;;;8.23;3.38;;;25.80;55.10;;;;;;6103584;28;80459;-64
2022/07/20 07:43:19;;;;;;;6.30;3.60;;;25.80;54.40;;;;;;6109737;28;82564;-64
2022/07/20 07:46:19;;;;;;;6.45;4.00;;;25.80;54.00;;;;;;6105807;28;80586;-63
2022/07/20 07:49:20;;;;;;;6.38;3.38;;;25.80;54.00;;;;;;6106618;28;80426;-64
2022/07/20 07:52:21;;;;;;;9.93;3.42;;;25.90;54.10;;;;;;6097683;28;82391;-63
2022/07/20 07:55:21;;;;;;;7.68;3.92;;;25.90;54.20;;;;;;6109626;28;80327;-63
2022/07/20 07:58:22;;;;;;;15.07;3.55;;;25.90;53.70;;;;;;6103409;28;81062;-63
2022/07/20 08:01:22;;;;;;;7.20;3.63;;;26.00;53.70;;;;;;6101300;28;80644;-63
2022/07/20 08:04:23;;;;;;;7.63;3.88;;;26.00;53.60;;;;;;6108580;28;81352;-63
2022/07/20 08:07:23;;;;;;;5.43;3.40;;;26.10;53.80;;;;;;6111748;28;80739;-63
2022/07/20 08:10:24;;;;;;;7.30;3.40;;;26.10;53.80;;;;;;6111265;28;81401;-63
2022/07/20 08:13:24;;;;;;;12.48;4.15;;;26.10;53.60;;;;;;6094550;28;80682;-62
2022/07/20 08:16:25;;;;;;;7.88;4.20;;;26.10;53.40;;;;;;6087880;28;80880;-63
2022/07/20 08:19:25;;;;;;;9.00;4.00;;;26.20;53.50;;;;;;6094044;28;81176;-62
2022/07/20 08:22:26;;;;;;;6.88;3.80;;;26.20;53.60;;;;;;6114260;28;80416;-63
2022/07/20 08:25:26;;;;;;;8.40;3.90;;;26.10;53.70;;;;;;6108335;28;80328;-66
2022/07/20 08:28:27;;;;;;;10.43;3.95;;;26.10;53.80;;;;;;6119022;28;80466;-72
2022/07/20 08:31:27;;;;;;;28.98;7.15;;;26.10;53.90;;;;;;6096941;28;81690;-66
2022/07/20 08:34:28;;;;;;;21.10;5.38;;;26.10;54.50;;;;;;6092631;28;80486;-65
2022/07/20 08:37:29;;;;;;;30.27;7.85;;;26.10;54.50;;;;;;6097766;28;81744;-67
2022/07/20 08:40:31;;;;;;;22.58;6.20;;;26.10;54.70;;;;;;6095054;28;80549;-65
2022/07/20 08:43:31;;;;;;;30.25;7.00;;;26.10;54.70;;;;;;6093502;28;80895;-66
2022/07/20 08:46:32;;;;;;;25.92;6.78;;;26.10;54.90;;;;;;6092931;28;80487;-63
2022/07/20 08:49:32;;;;;;;19.30;5.97;;;26.10;54.60;;;;;;6105761;28;80464;-64
2022/07/20 08:52:33;;;;;;;29.58;7.18;;;26.20;54.50;;;;;;6109573;28;80363;-64
2022/07/20 08:55:33;;;;;;;13.48;5.32;;;26.10;54.40;;;;;;6095894;28;80885;-64
2022/07/20 08:58:34;;;;;;;14.30;5.30;;;26.10;54.30;;;;;;6102562;28;82101;-64
2022/07/20 09:01:34;;;;;;;18.02;4.93;;;26.20;53.90;;;;;;6109779;28;81074;-65
2022/07/20 09:04:35;;;;;;;10.98;4.53;;;26.20;53.80;;;;;;6099463;28;80148;-63
2022/07/20 09:07:36;;;;;;;11.30;4.38;;;26.20;53.90;;;;;;6114006;28;80414;-64
2022/07/20 09:10:36;;;;;;;12.27;4.65;;;26.20;53.80;;;;;;6105216;28;81576;-65
2022/07/20 09:13:38;;;;;;;8.48;3.85;;;26.30;53.80;;;;;;6106461;28;81502;-63
2022/07/20 09:16:48;;;;;;;8.80;4.05;;;26.30;53.40;;;;;;6110629;28;80444;-64
2022/07/20 09:19:48;;;;;;;8.93;3.88;;;26.40;52.90;;;;;;6103648;28;80474;-64
2022/07/20 09:22:49;;;;;;;14.40;4.28;;;26.50;51.60;;;;;;6111408;28;80970;-72
2022/07/20 09:25:49;;;;;;;9.25;3.92;;;26.60;51.80;;;;;;6106751;28;80467;-73
2022/07/20 09:28:50;;;;;;;7.63;3.80;;;26.60;52.50;;;;;;6111126;28;81514;-71
2022/07/20 09:31:50;;;;;;;8.05;4.28;;;26.50;52.70;;;;;;6101442;28;81749;-73
2022/07/20 09:34:51;;;;;;;5.85;3.75;;;26.50;52.80;;;;;;6110488;28;80415;-64
2022/07/20 09:37:51;;;;;;;9.13;4.18;;;26.70;52.30;;;;;;6103598;28;80663;-64
2022/07/20 09:40:53;;;;;;;10.63;4.03;;;26.70;52.00;;;;;;6106215;28;81913;-64
2022/07/20 09:43:53;;;;;;;7.25;4.40;;;26.70;51.80;;;;;;6110198;28;80362;-64
2022/07/20 09:46:54;;;;;;;5.38;3.50;;;26.70;52.10;;;;;;6117248;28;82030;-64
2022/07/20 09:49:55;;;;;;;7.15;3.95;;;26.70;52.10;;;;;;6110747;28;80324;-64
2022/07/20 09:52:55;;;;;;;8.73;3.85;;;26.70;52.10;;;;;;6117466;28;80183;-63
2022/07/20 09:55:56;;;;;;;9.32;4.28;;;26.60;52.10;;;;;;6095296;28;80408;-63
2022/07/20 09:58:56;;;;;;;11.07;3.97;;;26.60;51.90;;;;;;6089095;28;80287;-64
2022/07/20 10:01:57;;;;;;;6.03;3.95;;;26.60;51.50;;;;;;6110584;28;80278;-64
2022/07/20 10:04:58;;;;;;;7.68;4.35;;;26.60;51.30;;;;;;6100031;28;81372;-64
2022/07/20 10:07:58;;;;;;;7.32;4.03;;;26.50;51.80;;;;;;6099913;28;80870;-64
2022/07/20 10:10:59;;;;;;;8.63;3.63;;;26.50;51.90;;;;;;6102758;28;81671;-63
2022/07/20 10:13:59;;;;;;;12.02;4.82;;;26.50;51.70;;;;;;6100892;28;80896;-64
2022/07/20 10:17:00;;;;;;;6.50;3.92;;;26.50;51.90;;;;;;6108109;28;82520;-63
2022/07/20 10:20:00;;;;;;;7.78;4.13;;;26.50;51.40;;;;;;6108275;28;80762;-64
2022/07/20 10:23:01;;;;;;;9.80;4.65;;;26.50;51.70;;;;;;6109441;28;80973;-64
2022/07/20 10:26:01;;;;;;;7.05;4.20;;;26.50;51.60;;;;;;6109894;28;81224;-64
2022/07/20 10:29:02;;;;;;;6.93;4.15;;;26.50;52.30;;;;;;6113413;28;80609;-64
2022/07/20 10:32:02;;;;;;;8.23;4.07;;;26.60;51.80;;;;;;6113331;28;80892;-64
2022/07/20 10:35:03;;;;;;;10.55;3.97;;;26.60;51.60;;;;;;6116184;28;80514;-64
2022/07/20 10:38:03;;;;;;;6.97;3.83;;;26.70;50.50;;;;;;6114383;28;80680;-64
2022/07/20 10:44:24;;;;;;;7.53;4.03;;;26.90;50.00;;;;;;6112932;28;80864;-64
2022/07/20 10:47:25;;;;;;;8.52;4.28;;;27.00;49.90;;;;;;6117856;28;81767;-63
2022/07/20 10:50:25;;;;;;;7.70;3.88;;;27.00;49.90;;;;;;6129826;28;80680;-64
2022/07/20 10:53:28;;;;;;;7.25;4.10;;;26.90;50.00;;;;;;6111559;28;83686;-63
2022/07/20 10:56:29;;;;;;;6.70;3.75;;;26.90;50.10;;;;;;6108698;28;81535;-64
2022/07/20 10:59:29;;;;;;;5.78;3.67;;;26.80;49.90;;;;;;6113290;28;80273;-63
2022/07/20 11:02:30;;;;;;;6.45;3.70;;;26.90;49.70;;;;;;6111668;28;80498;-64
2022/07/20 11:05:30;;;;;;;7.60;4.03;;;26.80;49.80;;;;;;6113069;28;80860;-63
2022/07/20 11:08:31;;;;;;;6.90;4.10;;;26.80;49.30;;;;;;6115497;28;83344;-64
2022/07/20 11:11:31;;;;;;;7.90;3.47;;;26.80;49.00;;;;;;6104093;28;80743;-63
2022/07/20 11:14:32;;;;;;;12.50;4.20;;;26.80;49.40;;;;;;6110401;28;80199;-64
2022/07/20 11:17:33;;;;;;;16.83;3.95;;;26.80;49.60;;;;;;6109747;28;81622;-64
2022/07/20 11:20:34;;;;;;;9.10;4.28;;;27.00;48.90;;;;;;6112328;28;80587;-64
2022/07/20 11:23:34;;;;;;;8.15;4.07;;;27.00;48.70;;;;;;6112860;28;80456;-64
2022/07/20 11:26:35;;;;;;;14.43;4.18;;;27.10;48.90;;;;;;6112984;28;80781;-65
2022/07/20 11:29:36;;;;;;;6.72;4.10;;;27.10;48.90;;;;;;6121246;28;80619;-64
2022/07/20 11:32:37;;;;;;;5.03;3.70;;;27.10;49.10;;;;;;6119232;28;81555;-66
2022/07/20 11:35:38;;;;;;;11.75;4.78;;;27.10;49.30;;;;;;6116724;28;80550;-65
2022/07/20 11:38:38;;;;;;;6.85;4.10;;;27.10;49.40;;;;;;6121711;28;80475;-65
2022/07/20 11:41:39;;;;;;;7.97;3.80;;;27.10;49.50;;;;;;6112379;28;80913;-64
2022/07/20 11:44:39;;;;;;;9.35;4.30;;;27.10;49.70;;;;;;6111130;28;81524;-65
2022/07/20 11:47:40;;;;;;;8.82;4.68;;;27.10;49.80;;;;;;6110653;28;81760;-64
2022/07/20 11:50:40;;;;;;;9.27;4.47;;;27.10;49.70;;;;;;6111058;28;80740;-65
2022/07/20 11:53:41;;;;;;;9.35;4.38;;;27.10;49.90;;;;;;6111434;28;81440;-69
2022/07/20 11:56:41;;;;;;;11.05;4.38;;;27.10;50.00;;;;;;6111402;28;81134;-68
2022/07/20 11:59:42;;;;;;;12.05;4.65;;;27.20;49.90;;;;;;6102580;28;80788;-70
2022/07/20 12:02:42;;;;;;;10.90;4.00;;;27.40;49.70;;;;;;6087088;28;80356;-71
2022/07/20 12:05:43;;;;;;;10.15;4.97;;;27.30;49.70;;;;;;6109211;28;84127;-71
2022/07/20 12:08:43;;;;;;;7.40;4.35;;;27.30;50.00;;;;;;6112430;28;80897;-70
2022/07/20 12:11:44;;;;;;;13.00;5.15;;;27.40;49.80;;;;;;6119410;28;80270;-68
2022/07/20 12:14:44;;;;;;;8.50;4.93;;;27.60;49.00;;;;;;6111924;28;80469;-67
2022/07/20 12:17:44;;;;;;;7.20;4.35;;;27.80;48.60;;;;;;6105058;28;81048;-80
2022/07/20 12:20:45;;;;;;;6.90;4.28;;;27.70;48.50;;;;;;6115264;28;80159;-79
2022/07/20 12:23:45;;;;;;;10.57;5.40;;;27.70;48.90;;;;;;6116792;28;80231;-81
2022/07/20 12:26:47;;;;;;;10.90;4.72;;;27.70;49.20;;;;;;6119904;28;82665;-81
2022/07/20 12:29:48;;;;;;;14.15;5.78;;;27.60;49.50;;;;;;6117241;28;85987;-69
2022/07/20 12:32:48;;;;;;;12.02;5.28;;;27.50;50.00;;;;;;6120904;28;80956;-73
2022/07/20 12:35:49;;;;;;;8.00;4.57;;;27.40;50.40;;;;;;6131114;28;80839;-75
2022/07/20 12:38:49;;;;;;;12.98;5.43;;;27.30;50.70;;;;;;6120424;28;80327;-80
2022/07/20 12:41:49;;;;;;;11.70;4.82;;;27.30;51.90;;;;;;6115457;28;80649;-70
2022/07/20 12:44:50;;;;;;;13.05;4.60;;;27.30;51.50;;;;;;6111272;28;80503;-64
2022/07/20 12:47:50;;;;;;;10.13;4.10;;;27.20;50.80;;;;;;6106063;28;80978;-64
2022/07/20 12:50:51;;;;;;;10.48;4.95;;;27.20;50.50;;;;;;6110951;28;80495;-64
2022/07/20 12:53:52;;;;;;;8.13;4.13;;;27.20;50.40;;;;;;6111184;28;81048;-64
2022/07/20 12:56:52;;;;;;;6.63;4.88;;;27.20;50.60;;;;;;6111315;28;82226;-64
2022/07/20 12:59:53;;;;;;;10.82;4.50;;;27.10;50.40;;;;;;6110938;28;81242;-63
2022/07/20 13:02:53;;;;;;;12.40;6.38;;;27.10;50.30;;;;;;6112125;28;80867;-64
2022/07/20 13:05:54;;;;;;;15.07;6.57;;;27.20;50.30;;;;;;6114047;28;80597;-64
2022/07/20 13:08:54;;;;;;;9.25;5.50;;;27.30;50.00;;;;;;6111800;28;80622;-64
2022/07/20 13:11:55;;;;;;;7.78;4.75;;;27.40;50.40;;;;;;6127070;28;80271;-64
2022/07/20 13:14:55;;;;;;;8.98;4.53;;;27.40;50.30;;;;;;6117999;28;81312;-74
2022/07/20 13:17:56;;;;;;;10.13;4.43;;;27.30;50.20;;;;;;6117044;28;81455;-66
2022/07/20 13:20:57;;;;;;;9.38;5.13;;;27.30;50.20;;;;;;6113907;28;80803;-64
2022/07/20 13:23:57;;;;;;;9.93;4.97;;;27.30;50.80;;;;;;6110510;28;81488;-63
2022/07/20 13:26:58;;;;;;;7.47;4.50;;;27.20;50.90;;;;;;6107547;28;87240;-64
2022/07/20 13:29:58;;;;;;;7.57;4.68;;;27.20;50.70;;;;;;6108628;28;81290;-63
2022/07/20 13:32:59;;;;;;;11.57;4.32;;;27.20;51.00;;;;;;6110775;28;81036;-64
2022/07/20 13:35:59;;;;;;;9.52;4.40;;;27.20;51.00;;;;;;6103971;28;80841;-63
2022/07/20 13:39:00;;;;;;;8.70;4.68;;;27.20;51.30;;;;;;6104016;28;81360;-64
2022/07/20 13:42:00;;;;;;;11.38;4.32;;;27.20;51.60;;;;;;6095887;28;80472;-63
2022/07/20 13:45:01;;;;;;;9.70;4.70;;;27.30;51.80;;;;;;6096163;28;82900;-64
2022/07/20 13:48:01;;;;;;;7.95;4.50;;;27.30;51.80;;;;;;6108760;28;80919;-62
2022/07/20 13:51:02;;;;;;;7.55;4.43;;;27.40;51.40;;;;;;6110033;28;80902;-62
2022/07/20 13:54:02;;;;;;;9.65;4.30;;;27.50;50.90;;;;;;6108278;28;81931;-63
2022/07/20 13:57:03;;;;;;;9.35;5.05;;;27.50;50.90;;;;;;6109974;28;80559;-64
2022/07/20 14:00:03;;;;;;;12.43;4.63;;;27.50;51.00;;;;;;6102043;28;81225;-64
2022/07/20 14:03:12;;;;;;;15.05;5.75;;;27.50;51.10;;;;;;6109458;28;80775;-65
2022/07/20 14:06:12;;;;;;;16.08;7.18;;;27.50;51.60;;;;;;6128527;28;80385;-64
2022/07/20 14:09:13;;;;;;;14.15;7.25;;;27.50;52.00;;;;;;6130670;28;80934;-63
2022/07/20 14:12:13;;;;;;;16.02;7.07;;;27.40;52.70;;;;;;6117373;28;80422;-62
2022/07/20 14:15:14;;;;;;;17.92;7.78;;;27.50;52.60;;;;;;6114508;28;80624;-63
2022/07/20 14:18:14;;;;;;;13.48;7.20;;;27.50;52.50;;;;;;6115933;28;80527;-63
2022/07/20 14:21:15;;;;;;;12.45;7.30;;;27.50;52.70;;;;;;6118305;28;80956;-63
2022/07/20 14:24:16;;;;;;;10.13;6.70;;;27.50;52.90;;;;;;6103529;28;82105;-62
2022/07/20 14:27:17;;;;;;;14.18;6.68;;;27.50;53.50;;;;;;6111458;28;81008;-63
2022/07/20 14:30:17;;;;;;;15.75;6.93;;;27.50;52.70;;;;;;6116761;28;82026;-63
2022/07/20 14:33:18;;;;;;;16.48;6.38;;;27.50;52.80;;;;;;6108129;28;82086;-62
2022/07/20 14:36:18;;;;;;;13.18;5.75;;;27.60;52.20;;;;;;6109090;28;80336;-64
2022/07/20 14:39:19;;;;;;;8.55;5.47;;;27.60;52.00;;;;;;6113696;28;80718;-64
2022/07/20 14:42:19;;;;;;;10.63;5.68;;;27.50;51.40;;;;;;6112899;28;80983;-62
2022/07/20 14:45:20;;;;;;;10.82;5.13;;;27.50;52.60;;;;;;6112741;28;80832;-63
2022/07/20 14:48:20;;;;;;;11.38;5.38;;;27.40;50.70;;;;;;6103959;28;80754;-62
2022/07/20 14:51:21;;;;;;;6.28;4.68;;;27.40;51.60;;;;;;6104730;28;80558;-62
2022/07/20 14:54:21;;;;;;;11.05;4.75;;;27.40;51.60;;;;;;6105664;28;80395;-62
2022/07/20 14:57:22;;;;;;;8.98;5.28;;;27.50;51.70;;;;;;6113174;28;80581;-62
2022/07/20 15:00:22;;;;;;;13.18;5.07;;;27.40;51.50;;;;;;6103137;28;81208;-62
2022/07/20 15:03:23;;;;;;;8.52;5.03;;;27.40;51.60;;;;;;6111793;28;80707;-62
2022/07/20 15:06:23;;;;;;;7.95;4.60;;;27.40;51.60;;;;;;6123717;28;80129;-69
2022/07/20 15:09:24;;;;;;;8.48;4.72;;;27.30;51.30;;;;;;6126328;28;80755;-67
2022/07/20 15:12:24;;;;;;;15.15;5.05;;;27.40;51.30;;;;;;6104513;28;80701;-69
2022/07/20 15:15:25;;;;;;;8.93;5.22;;;27.30;51.20;;;;;;6121800;28;81792;-64
2022/07/20 15:18:26;;;;;;;8.25;4.35;;;27.40;51.30;;;;;;6113177;28;80195;-64
2022/07/20 15:21:26;;;;;;;8.88;5.63;;;27.40;51.20;;;;;;6115399;28;80571;-64
2022/07/20 15:24:27;;;;;;;10.32;4.30;;;27.40;51.10;;;;;;6111073;28;80880;-70
2022/07/20 15:27:27;;;;;;;9.77;4.82;;;27.40;51.00;;;;;;6111677;28;80923;-63
2022/07/20 15:30:28;;;;;;;7.47;4.82;;;27.40;51.00;;;;;;6108581;28;80545;-69
2022/07/20 15:33:28;;;;;;;12.30;4.85;;;27.50;50.80;;;;;;6097381;28;80674;-67
2022/07/20 15:36:29;;;;;;;11.68;4.68;;;27.50;51.10;;;;;;6102058;28;81923;-65
2022/07/20 15:39:29;;;;;;;13.43;5.07;;;27.50;50.90;;;;;;6103729;28;80752;-64